Everett, Georgia
Current Conditions -  °F | °C
As of 3:15 PM on Friday 21 Nov 2014 (Local Time) from KBQK Reporting Station
NA  
Wind Chill: 66°   Ceiling: NA
Heat Index: 66°   Visibility: 10mi
Dew Point: 30°   Wind: 15mph
Humidity: 26%   Direction: 70°ENE
Pressure: 30.34"   Gusts: NA
Location:  31.2665°N, 81.6074°W
Report Text: KBQK 212015Z AUTO 07013KT 10SM 19/M01 A3034 RMK AO1
Loading
Personal Weather Stations






























Interactive Weather Map New forecast layout! Learn more

10-Day Weather Forecast

Advertisements
Track Severe Weather on mobile